首页
METAR-TAF:

METAR-TAF

机场 :

重庆江北国际机场

重庆, 中华人民共和国

纬度: 29-31N, 经度: 106-29E, 海拔: 351米

当前天气观测

该预报发布于1小时和0分钟前的07:00 UTC
风速8节,风向西北,在西北转西北之间变化
温度 17°C
湿度 88%
气压 1018 hPa
能見度: 6000
散云层高于600英尺
散云层高于1200英尺
阴天层高于4000英尺
小雨

METAR: ZUCK 220700Z 31004MPS 270V330 6000 -RA SCT006 SCT012 OVC040 17/15 Q1018 NOSIG

时间: 16:00 (08:00 UTC)

预报

该预报发布于4小时和53分钟前的03:07 UTC
预报有效从22日的 06点(UTC)到 23日的 06点(UTC)
风速6节,风向西转西北
能見度: 3000
少量云层高于600英尺
散云层高于1500英尺
阴天层高于4000英尺
小阵雨, 轻雾
成为
从 23日的 01点(UTC)到 23日的 02点(UTC)
能見度: 5000
散云层高于4000英尺
轻雾

TAF: ZUCK 220307Z 2206/2306 30003MPS 3000 -SHRA BR FEW006 SCT015 OVC040 TX22/2206Z TN14/2222Z BECMG 2301/2302 5000 BR SCT040

超过4000个机场的气象观测和天气预报(METAR&TAF报告)。

可查询的气象台以黄色和红色小点在地图上表示。

将鼠标移到小点上方,可查看气象台名称。

然后点击查看天气观测和预报。

如需切换地图:点击带黑十字的绿色按钮放大地图;点击带横线的绿色按钮缩小地图;或者点击绿色箭头查看邻近地区的地图。


METAR-TAF: